Time;durP1;ratioP1;P1;durP2;ratioP2;P2;SDS_P1;SDS_P2;PMS_P1;PMS_P2;Temp;Humidity;BMP_temperature;BMP_pressure;BME280_temperature;BME280_humidity;BME280_pressure;Samples;Min_cycle;Max_cycle;Signal;HPM_P1;HPM_P2
2023/12/01 00:02:05;;;;;;;51.03;18.37;;;;;;;-1.81;100.00;100504.91;10339389;28;20411;-85
2023/12/01 00:07:05;;;;;;;42.70;17.73;;;;;;;-2.05;100.00;100501.41;10355322;28;20037;-84
2023/12/01 00:12:06;;;;;;;39.90;17.50;;;;;;;-2.00;100.00;100524.31;10355099;28;20553;-84
2023/12/01 00:17:07;;;;;;;48.23;20.33;;;;;;;-2.06;100.00;100515.06;10322451;28;20061;-84
2023/12/01 00:22:09;;;;;;;58.93;23.87;;;;;;;-1.99;100.00;100521.41;10337589;28;20065;-83
2023/12/01 00:27:09;;;;;;;54.67;20.77;;;;;;;-1.99;100.00;100521.41;10337683;28;20113;-83
2023/12/01 00:32:10;;;;;;;57.23;21.90;;;;;;;-2.11;100.00;100512.06;10322000;28;20053;-83
2023/12/01 00:37:10;;;;;;;62.77;23.00;;;;;;;-2.09;100.00;100528.91;10322807;28;20072;-83
2023/12/01 00:42:13;;;;;;;53.07;19.33;;;;;;;-2.05;100.00;100543.69;10305304;28;20426;-82
2023/12/01 00:47:14;;;;;;;60.33;21.43;;;;;;;-2.22;100.00;100534.06;10321317;28;20045;-83
2023/12/01 00:52:14;;;;;;;61.07;23.13;;;;;;;-2.15;100.00;100551.19;10352021;28;20045;-82
2023/12/01 00:57:15;;;;;;;65.43;24.47;;;;;;;-2.10;100.00;100543.41;10320326;28;20065;-83
2023/12/01 01:02:15;;;;;;;65.67;22.33;;;;;;;-2.07;100.00;100551.13;10350428;28;20073;-82
2023/12/01 01:07:16;;;;;;;62.80;21.43;;;;;;;-2.01;100.00;100563.91;10319222;28;20081;-83
2023/12/01 01:12:16;;;;;;;68.90;24.77;;;;;;;-2.01;100.00;100552.28;10326412;28;20422;-83
2023/12/01 01:17:17;;;;;;;56.87;21.93;;;;;;;-2.19;100.00;100528.28;10328866;28;20035;-82
2023/12/01 01:22:17;;;;;;;63.87;23.00;;;;;;;-2.20;100.00;100540.13;10315254;28;20030;-84
2023/12/01 01:27:18;;;;;;;65.23;21.40;;;;;;;-2.05;100.00;100571.53;10332656;28;20049;-83
2023/12/01 01:32:19;;;;;;;60.00;20.97;;;;;;;-2.05;100.00;100562.59;10272303;28;20108;-84
2023/12/01 01:37:19;;;;;;;74.27;24.30;;;;;;;-2.01;100.00;100550.41;10294282;28;20054;-78
2023/12/01 01:42:20;;;;;;;62.80;24.57;;;;;;;-2.07;100.00;100545.75;10277023;28;20045;-83
2023/12/01 01:47:20;;;;;;;57.40;21.07;;;;;;;-2.15;100.00;100543.97;10294097;28;20057;-83
2023/12/01 01:52:21;;;;;;;52.67;18.17;;;;;;;-2.22;100.00;100564.56;10262227;28;20039;-83
2023/12/01 01:57:21;;;;;;;57.70;18.90;;;;;;;-2.25;100.00;100589.19;10269101;28;20049;-83
2023/12/01 02:02:22;;;;;;;47.67;17.50;;;;;;;-2.46;100.00;100562.84;10283183;28;20073;-83
2023/12/01 02:07:25;;;;;;;46.33;17.87;;;;;;;-2.54;100.00;100573.66;10289442;28;20039;-84
2023/12/01 02:12:25;;;;;;;40.00;13.87;;;;;;;-2.58;100.00;100585.81;10280835;28;20094;-83
2023/12/01 02:17:26;;;;;;;41.37;14.63;;;;;;;-2.48;100.00;100599.91;10256431;28;20039;-84
2023/12/01 02:22:27;;;;;;;40.50;15.87;;;;;;;-2.66;100.00;100575.94;10285258;28;20038;-80
2023/12/01 02:27:28;;;;;;;36.90;13.10;;;;;;;-2.60;100.00;100599.47;10296393;28;20074;-77
2023/12/01 02:32:28;;;;;;;38.50;14.93;;;;;;;-2.71;100.00;100592.63;10323523;28;20069;-82
2023/12/01 02:37:29;;;;;;;32.33;12.50;;;;;;;-3.10;100.00;100541.38;10302071;28;20113;-82
2023/12/01 02:42:29;;;;;;;40.20;14.93;;;;;;;-2.65;100.00;100613.50;10318715;28;20034;-82
2023/12/01 02:47:30;;;;;;;29.07;11.43;;;;;;;-2.87;100.00;100603.47;10329621;28;20042;-81
2023/12/01 02:52:30;;;;;;;28.77;12.53;;;;;;;-2.96;100.00;100615.25;10305015;28;20035;-82
2023/12/01 02:57:31;;;;;;;24.27;10.93;;;;;;;-2.97;100.00;100618.97;10344392;28;20057;-82
2023/12/01 03:02:32;;;;;;;32.53;13.03;;;;;;;-3.09;100.00;100611.25;10315829;28;20066;-80
2023/12/01 03:07:32;;;;;;;25.87;12.57;;;;;;;-3.14;100.00;100602.84;10317914;28;20073;-82
2023/12/01 03:12:34;;;;;;;30.40;12.37;;;;;;;-3.20;100.00;100632.28;10358341;28;20034;-81
2023/12/01 03:17:34;;;;;;;33.57;13.20;;;;;;;-3.38;100.00;100616.34;10335572;28;20114;-81
2023/12/01 03:22:35;;;;;;;32.73;14.50;;;;;;;-3.24;100.00;100623.75;10312079;28;20046;-82
2023/12/01 03:27:40;;;;;;;29.47;13.33;;;;;;;-3.49;100.00;100621.06;10297389;28;20450;-80
2023/12/01 03:32:48;;;;;;;32.70;12.50;;;;;;;-3.71;100.00;100632.50;10343157;28;20042;-81
2023/12/01 03:37:49;;;;;;;31.83;12.40;;;;;;;-3.87;100.00;100618.00;10325003;28;20117;-80
2023/12/01 03:42:50;;;;;;;33.57;14.97;;;;;;;-4.03;100.00;100618.00;10306370;28;20034;-80
2023/12/01 03:47:51;;;;;;;32.93;14.33;;;;;;;-4.10;100.00;100616.97;10323652;28;20041;-80
2023/12/01 03:52:51;;;;;;;30.83;13.33;;;;;;;-4.14;100.00;100615.63;10290900;28;20047;-81
2023/12/01 03:57:52;;;;;;;36.57;14.53;;;;;;;-4.23;100.00;100611.25;10330504;28;20042;-81
2023/12/01 04:02:52;;;;;;;37.30;14.07;;;;;;;-4.14;100.00;100612.94;10325306;28;20088;-81
2023/12/01 04:07:53;;;;;;;38.83;15.03;;;;;;;-4.08;100.00;100609.59;10324497;28;20035;-81
2023/12/01 04:12:54;;;;;;;33.93;14.57;;;;;;;-4.10;100.00;100612.44;10326320;28;20045;-80
2023/12/01 04:17:54;;;;;;;35.37;14.23;;;;;;;-4.35;100.00;100598.09;10347126;28;20544;-81
2023/12/01 04:22:59;;;;;;;36.27;15.43;;;;;;;-4.30;100.00;100619.97;10351015;28;20034;-82
2023/12/01 04:28:00;;;;;;;33.30;15.63;;;;;;;-4.46;100.00;100619.91;10334557;28;20042;-81
2023/12/01 04:33:01;;;;;;;35.73;14.33;;;;;;;-4.54;100.00;100619.88;10342666;28;20125;-81
2023/12/01 04:38:05;;;;;;;38.40;14.33;;;;;;;-4.51;100.00;100630.28;10325829;28;20038;-84
2023/12/01 04:43:06;;;;;;;31.50;13.47;;;;;;;-4.50;100.00;100637.38;10319870;28;20046;-82
2023/12/01 04:48:07;;;;;;;31.30;14.43;;;;;;;-4.69;100.00;100612.44;10313776;28;20055;-83
2023/12/01 04:53:08;;;;;;;35.17;15.37;;;;;;;-4.63;100.00;100637.81;10315322;28;20034;-84
2023/12/01 04:58:08;;;;;;;32.57;13.80;;;;;;;-4.73;100.00;100646.00;10305320;28;20049;-85
2023/12/01 05:03:10;;;;;;;29.97;13.70;;;;;;;-4.84;100.00;100635.50;10319932;28;20511;-84
2023/12/01 05:08:11;;;;;;;36.60;15.13;;;;;;;-4.83;100.00;100658.69;10344541;28;20039;-84
2023/12/01 05:13:14;;;;;;;37.67;15.83;;;;;;;-4.94;100.00;100673.25;10312190;28;20050;-86
2023/12/01 05:18:14;;;;;;;39.73;15.97;;;;;;;-4.99;100.00;100670.16;10327799;28;20034;-82
2023/12/01 05:23:15;;;;;;;36.30;14.20;;;;;;;-4.97;100.00;100670.84;10297419;28;20073;-85
2023/12/01 05:28:15;;;;;;;33.00;14.13;;;;;;;-4.95;100.00;100673.38;10310355;28;20045;-82
2023/12/01 05:33:16;;;;;;;34.87;14.63;;;;;;;-4.97;100.00;100664.66;10337660;28;20113;-84
2023/12/01 05:38:17;;;;;;;36.20;13.20;;;;;;;-5.00;100.00;100675.69;10339251;28;22202;-84
2023/12/01 05:43:17;;;;;;;36.47;14.90;;;;;;;-5.03;100.00;100674.16;10325066;28;20037;-83
2023/12/01 05:48:18;;;;;;;38.30;14.33;;;;;;;-5.11;100.00;100677.63;10321329;28;20433;-82
2023/12/01 05:53:18;;;;;;;35.50;14.03;;;;;;;-5.22;100.00;100685.94;10320268;28;20041;-82
2023/12/01 05:58:19;;;;;;;35.27;15.37;;;;;;;-5.28;100.00;100682.03;10335378;28;20050;-83
2023/12/01 06:03:20;;;;;;;42.27;15.37;;;;;;;-5.24;100.00;100704.06;10330539;28;20045;-82
2023/12/01 06:08:20;;;;;;;35.87;13.70;;;;;;;-5.25;100.00;100699.69;10302565;28;20039;-81
2023/12/01 06:13:21;;;;;;;34.67;13.77;;;;;;;-5.25;100.00;100702.38;10319505;28;20089;-83
2023/12/01 06:18:22;;;;;;;38.83;13.80;;;;;;;-5.24;100.00;100709.41;10326093;28;20054;-79
2023/12/01 06:23:23;;;;;;;34.87;14.30;;;;;;;-5.26;100.00;100700.69;10326016;28;20129;-77
2023/12/01 06:28:26;;;;;;;30.33;12.97;;;;;;;-5.28;100.00;100702.69;10328826;28;20489;-83
2023/12/01 06:33:26;;;;;;;36.50;14.37;;;;;;;-5.34;100.00;100697.94;10306121;28;20054;-83
2023/12/01 06:38:27;;;;;;;36.10;14.23;;;;;;;-5.38;100.00;100708.13;10299945;28;20052;-81
2023/12/01 06:43:30;;;;;;;31.87;12.93;;;;;;;-5.50;100.00;100696.81;10320773;28;20035;-81
2023/12/01 06:48:30;;;;;;;33.90;12.93;;;;;;;-5.47;100.00;100712.56;10336919;28;20041;-81
2023/12/01 06:53:31;;;;;;;38.20;14.27;;;;;;;-5.51;100.00;100713.88;10317722;28;20041;-80
2023/12/01 06:58:32;;;;;;;37.63;13.40;;;;;;;-5.48;100.00;100716.28;10339711;28;20046;-81
2023/12/01 07:03:32;;;;;;;32.57;13.60;;;;;;;-5.45;100.00;100714.28;10334161;28;20403;-82
2023/12/01 07:08:33;;;;;;;34.07;13.27;;;;;;;-5.47;100.00;100720.63;10356091;28;20073;-81
2023/12/01 07:13:33;;;;;;;39.23;14.00;;;;;;;-5.47;100.00;100717.94;10295688;28;20061;-81
2023/12/01 07:18:34;;;;;;;36.23;14.47;;;;;;;-5.29;100.00;100749.31;10323010;28;20042;-80
2023/12/01 07:23:34;;;;;;;34.23;13.37;;;;;;;-5.41;100.00;100745.16;10316880;28;20123;-80
2023/12/01 07:28:37;;;;;;;30.03;13.67;;;;;;;-5.33;100.00;100753.28;10333327;28;20053;-79
2023/12/01 07:33:37;;;;;;;36.70;13.80;;;;;;;-5.40;100.00;100754.88;10324707;28;20514;-80
2023/12/01 07:38:38;;;;;;;37.63;15.13;;;;;;;-5.32;100.00;100776.44;10316873;28;20069;-80
2023/12/01 07:43:40;;;;;;;38.20;14.57;;;;;;;-5.31;100.00;100780.81;10311922;28;20055;-80
2023/12/01 07:48:41;;;;;;;42.10;15.60;;;;;;;-5.26;100.00;100773.13;10328959;28;20045;-80
2023/12/01 07:53:44;;;;;;;36.30;13.67;;;;;;;-5.20;100.00;100801.22;10314960;28;20061;-79
2023/12/01 07:58:44;;;;;;;38.07;15.27;;;;;;;-5.27;100.00;100790.25;10319376;28;20080;-80
2023/12/01 08:03:46;;;;;;;37.70;15.03;;;;;;;-5.21;100.00;100802.19;10313406;28;20092;-79
2023/12/01 08:08:46;;;;;;;41.17;16.17;;;;;;;-4.82;100.00;100826.88;10355331;28;20046;-79
2023/12/01 08:13:48;;;;;;;36.90;14.43;;;;;;;-4.52;100.00;100827.44;10313717;28;20034;-79
2023/12/01 08:18:48;;;;;;;38.93;15.70;;;;;;;-4.37;100.00;100816.97;10328969;28;20453;-79
2023/12/01 08:23:49;;;;;;;40.10;15.50;;;;;;;-4.26;100.00;100830.97;10311577;28;20069;-76
2023/12/01 08:28:49;;;;;;;39.87;15.23;;;;;;;-4.28;100.00;100835.69;10335908;28;20049;-78
2023/12/01 08:33:50;;;;;;;36.50;14.63;;;;;;;-4.09;100.00;100839.16;10299906;28;20101;-78
2023/12/01 08:38:51;;;;;;;42.83;15.10;;;;;;;-4.06;100.00;100846.88;10323288;28;20038;-78
2023/12/01 08:43:52;;;;;;;35.57;15.27;;;;;;;-4.09;100.00;100833.78;10312365;28;20114;-78
2023/12/01 08:48:53;;;;;;;35.73;14.53;;;;;;;-4.03;100.00;100832.25;10313135;28;20038;-78
2023/12/01 08:53:53;;;;;;;33.03;15.10;;;;;;;-4.10;100.00;100824.84;10314445;28;20174;-78
2023/12/01 08:58:54;;;;;;;33.87;14.57;;;;;;;-4.02;100.00;100844.72;10354746;28;20104;-78
2023/12/01 09:03:55;;;;;;;34.13;13.27;;;;;;;-3.93;100.00;100831.13;10329063;28;20050;-78
2023/12/01 09:08:55;;;;;;;35.43;14.07;;;;;;;-4.00;100.00;100827.41;10323333;28;20038;-78
2023/12/01 09:13:56;;;;;;;34.60;15.47;;;;;;;-3.83;100.00;100854.41;10338315;28;20104;-78
2023/12/01 09:18:56;;;;;;;32.47;14.03;;;;;;;-3.81;100.00;100847.00;10351211;28;20399;-74
2023/12/01 09:23:57;;;;;;;34.70;15.63;;;;;;;-3.80;100.00;100840.59;10358445;28;20037;-77
2023/12/01 09:28:57;;;;;;;37.97;15.23;;;;;;;-3.69;100.00;100857.31;10326664;28;20042;-78
2023/12/01 09:33:58;;;;;;;35.87;15.70;;;;;;;-3.64;100.00;100856.81;10350132;28;20213;-77
2023/12/01 09:38:59;;;;;;;39.50;14.63;;;;;;;-3.55;100.00;100849.66;10342931;28;20135;-77
2023/12/01 09:44:00;;;;;;;33.27;14.10;;;;;;;-3.40;100.00;100863.31;10319040;28;20053;-77
2023/12/01 09:49:03;;;;;;;39.57;16.27;;;;;;;-3.29;100.00;100860.31;10308043;28;20047;-77
2023/12/01 09:54:03;;;;;;;39.70;16.17;;;;;;;-3.14;100.00;100855.97;10312667;28;20078;-77
2023/12/01 09:59:05;;;;;;;37.57;17.50;;;;;;;-3.01;100.00;100843.88;10337008;28;20042;-77
2023/12/01 10:04:05;;;;;;;42.30;17.00;;;;;;;-2.71;100.00;100850.47;10330101;28;20043;-77
2023/12/01 10:09:09;;;;;;;38.03;16.60;;;;;;;-2.34;100.00;100859.88;10312060;28;20034;-77
2023/12/01 10:14:10;;;;;;;43.73;18.23;;;;;;;-2.07;100.00;100867.59;10320385;28;20045;-76
2023/12/01 10:19:12;;;;;;;39.10;17.53;;;;;;;-1.66;100.00;100885.53;10349347;28;20467;-74
2023/12/01 10:24:22;;;;;;;40.13;16.97;;;;;;;-1.48;100.00;100882.59;10337521;28;20049;-77
2023/12/01 10:29:39;;;;;;;34.87;15.30;;;;;;;-1.22;100.00;100888.56;10318035;28;20048;-75
2023/12/01 10:34:41;;;;;;;32.90;15.27;;;;;;;-1.23;100.00;100875.22;10344876;28;20069;-75
2023/12/01 10:39:41;;;;;;;33.03;15.17;;;;;;;-1.19;100.00;100868.44;10301367;28;20042;-77
2023/12/01 10:44:42;;;;;;;32.10;15.43;;;;;;;-1.05;100.00;100859.56;10350998;28;20104;-78
2023/12/01 10:49:44;;;;;;;29.73;14.80;;;;;;;-0.95;100.00;100886.38;10318993;28;20039;-78
2023/12/01 10:54:44;;;;;;;33.00;15.60;;;;;;;-1.11;100.00;100873.81;10345103;28;20091;-78
2023/12/01 10:59:51;;;;;;;33.67;15.10;;;;;;;-1.08;100.00;100865.31;10331138;28;20091;-78
2023/12/01 11:04:51;;;;;;;33.10;15.37;;;;;;;-1.16;100.00;100845.63;10326823;28;20101;-77
2023/12/01 11:10:26;;;;;;;31.23;14.90;;;;;;;-0.99;100.00;100863.44;10350265;28;20111;-77
2023/12/01 11:15:28;;;;;;;32.20;16.03;;;;;;;-1.04;100.00;100860.41;10336851;28;20070;-77
2023/12/01 11:20:33;;;;;;;35.37;15.13;;;;;;;-0.95;100.00;100863.91;10333093;28;20103;-77
2023/12/01 11:25:43;;;;;;;27.97;14.53;;;;;;;-0.92;100.00;100866.25;10354848;28;20046;-77
2023/12/01 11:31:08;;;;;;;30.43;14.77;;;;;;;-0.88;100.00;100854.06;10357377;28;20068;-78
2023/12/01 11:36:30;;;;;;;29.37;14.93;;;;;;;-0.83;100.00;100862.47;10325168;28;20042;-77
2023/12/01 11:41:31;;;;;;;31.77;14.50;;;;;;;-0.85;100.00;100859.09;10347491;28;20037;-74
2023/12/01 11:46:34;;;;;;;31.97;15.37;;;;;;;-0.84;100.00;100848.13;10340084;28;20490;-78
2023/12/01 11:51:34;;;;;;;40.63;16.50;;;;;;;-0.72;100.00;100869.34;10342567;28;20049;-76
2023/12/01 11:56:35;;;;;;;34.60;16.73;;;;;;;-0.71;100.00;100866.44;10395037;28;20313;-75
2023/12/01 12:01:37;;;;;;;32.63;15.97;;;;;;;-0.77;100.00;100856.34;10338793;28;20105;-75
2023/12/01 12:06:38;;;;;;;31.07;15.43;;;;;;;-0.73;100.00;100846.00;10365892;28;20152;-75
2023/12/01 12:11:39;;;;;;;34.13;16.13;;;;;;;-0.51;100.00;100855.13;10328520;28;20060;-77
2023/12/01 12:16:40;;;;;;;34.03;15.73;;;;;;;-0.48;100.00;100843.94;10378296;28;20041;-75
2023/12/01 12:21:40;;;;;;;27.43;12.40;;;;;;;-0.42;100.00;100843.22;10369373;28;20084;-76
2023/12/01 12:26:42;;;;;;;27.67;13.90;;;;;;;-0.46;100.00;100848.13;10324010;28;20046;-76
2023/12/01 12:31:42;;;;;;;29.73;13.10;;;;;;;-0.46;100.00;100840.03;10337726;28;20559;-73
2023/12/01 12:36:43;;;;;;;23.73;13.13;;;;;;;-0.32;100.00;100859.19;10335920;28;20112;-76
2023/12/01 12:41:52;;;;;;;29.67;14.60;;;;;;;-0.31;100.00;100853.59;10340048;28;20038;-76
2023/12/01 12:47:04;;;;;;;23.90;13.87;;;;;;;-0.32;100.00;100860.03;10337619;28;20061;-75
2023/12/01 12:52:05;;;;;;;27.67;12.80;;;;;;;-0.29;100.00;100865.09;10341663;28;20494;-77
2023/12/01 12:57:06;;;;;;;26.70;14.33;;;;;;;-0.23;100.00;100875.16;10364678;28;20064;-76
2023/12/01 13:02:06;;;;;;;23.57;12.97;;;;;;;-0.30;100.00;100868.78;10338139;28;20045;-77
2023/12/01 13:07:07;;;;;;;30.50;15.03;;;;;;;-0.33;100.00;100869.19;10336150;28;20466;-76
2023/12/01 13:12:08;;;;;;;28.60;14.60;;;;;;;-0.39;100.00;100875.31;10353039;28;20034;-76
2023/12/01 13:17:09;;;;;;;36.27;15.83;;;;;;;-0.54;100.00;100856.31;10336279;28;20056;-77
2023/12/01 13:22:09;;;;;;;28.50;14.80;;;;;;;-0.45;100.00;100870.63;10379853;28;20042;-77
2023/12/01 13:27:10;;;;;;;31.47;15.27;;;;;;;-0.54;100.00;100866.31;10353504;28;20042;-75
2023/12/01 13:32:11;;;;;;;24.27;13.20;;;;;;;-0.70;100.00;100797.84;10304717;28;20130;-77
2023/12/01 13:37:11;;;;;;;26.73;14.97;;;;;;;-0.15;100.00;100870.69;10288188;28;20157;-77
2023/12/01 13:42:12;;;;;;;25.10;13.23;;;;;;;-0.02;100.00;100877.16;10299791;28;20050;-78
2023/12/01 13:47:12;;;;;;;27.13;14.03;;;;;;;0.01;100.00;100848.88;10300233;28;20058;-78
2023/12/01 13:52:13;;;;;;;26.88;13.60;;;;;;;0.17;100.00;100855.97;10286385;28;20042;-78
2023/12/01 13:57:13;;;;;;;24.57;13.67;;;;;;;0.12;100.00;100861.94;10282764;28;20039;-78
2023/12/01 14:02:14;;;;;;;24.83;13.07;;;;;;;-0.03;100.00;100855.69;10259589;28;20073;-78
2023/12/01 14:07:15;;;;;;;22.63;12.27;;;;;;;-0.42;100.00;100848.63;10271695;28;20049;-78
2023/12/01 14:12:15;;;;;;;26.17;14.33;;;;;;;-0.62;100.00;100859.94;10261054;28;20031;-78
2023/12/01 14:17:15;;;;;;;23.97;13.50;;;;;;;-0.87;100.00;100853.91;10277056;28;20051;-77
2023/12/01 14:22:16;;;;;;;24.60;13.33;;;;;;;-0.94;100.00;100843.97;10274562;28;20455;-77
2023/12/01 14:27:19;;;;;;;25.10;12.67;;;;;;;-0.79;100.00;100857.53;10255901;28;20429;-77
2023/12/01 14:32:19;;;;;;;26.43;13.23;;;;;;;-0.89;100.00;100864.03;10296938;28;20071;-78
2023/12/01 14:37:21;;;;;;;25.93;12.87;;;;;;;-1.12;100.00;100855.88;10300327;28;20426;-77
2023/12/01 14:42:22;;;;;;;24.50;13.53;;;;;;;-1.30;100.00;100844.50;10282377;28;20050;-77
2023/12/01 14:47:22;;;;;;;27.70;12.97;;;;;;;-1.38;100.00;100863.50;10329256;28;20565;-77
2023/12/01 14:52:23;;;;;;;25.20;13.20;;;;;;;-1.60;100.00;100855.13;10310757;28;20046;-78
2023/12/01 14:57:23;;;;;;;29.37;15.67;;;;;;;-1.78;100.00;100857.22;10286176;28;20077;-77
2023/12/01 15:02:23;;;;;;;27.80;14.57;;;;;;;-1.97;100.00;100848.50;10331601;28;20050;-77
2023/12/01 15:07:24;;;;;;;30.07;13.60;;;;;;;-2.12;100.00;100867.25;10324821;28;20070;-77
2023/12/01 15:12:24;;;;;;;28.53;14.43;;;;;;;-2.36;100.00;100865.44;10316070;28;20049;-77
2023/12/01 15:17:25;;;;;;;29.40;15.67;;;;;;;-2.44;100.00;100858.22;10308902;28;20110;-77
2023/12/01 15:22:25;;;;;;;31.43;15.87;;;;;;;-2.39;100.00;100862.25;10318044;28;20039;-77
2023/12/01 15:27:26;;;;;;;30.80;15.37;;;;;;;-2.43;100.00;100853.66;10336559;28;20098;-76
2023/12/01 15:32:27;;;;;;;32.97;16.30;;;;;;;-2.35;100.00;100875.22;10313723;28;20043;-75
2023/12/01 15:37:28;;;;;;;35.50;19.03;;;;;;;-2.33;100.00;100878.59;10290422;28;20081;-77
2023/12/01 15:42:28;;;;;;;41.00;18.30;;;;;;;-2.37;100.00;100879.94;10246024;28;20039;-76
2023/12/01 15:47:29;;;;;;;37.60;19.07;;;;;;;-2.38;100.00;100866.63;10266801;28;20140;-76
2023/12/01 15:52:29;;;;;;;43.87;19.37;;;;;;;-2.26;100.00;100887.66;10274677;28;20039;-77
2023/12/01 15:57:30;;;;;;;42.63;20.13;;;;;;;-2.26;100.00;100903.84;10289642;28;20049;-76
2023/12/01 16:02:30;;;;;;;43.33;20.57;;;;;;;-2.28;100.00;100892.41;10293163;28;20042;-77
2023/12/01 16:07:31;;;;;;;50.17;21.00;;;;;;;-2.20;100.00;100907.72;10271353;28;20121;-77
2023/12/01 16:12:31;;;;;;;42.40;20.07;;;;;;;-2.18;100.00;100886.81;10265807;28;20097;-77
2023/12/01 16:17:32;;;;;;;48.13;21.60;;;;;;;-2.09;100.00;100917.31;10313254;28;20038;-77
2023/12/01 16:22:32;;;;;;;48.50;23.30;;;;;;;-2.10;100.00;100918.34;10260516;28;20039;-77
2023/12/01 16:27:33;;;;;;;46.10;21.20;;;;;;;-2.16;100.00;100897.47;10242118;28;20035;-76
2023/12/01 16:32:34;;;;;;;46.03;21.40;;;;;;;-2.04;100.00;100906.88;10315810;28;20046;-75
2023/12/01 16:37:34;;;;;;;49.30;21.77;;;;;;;-2.01;100.00;100911.91;10350089;28;20482;-76
2023/12/01 16:42:35;;;;;;;53.83;22.77;;;;;;;-1.94;100.00;100923.72;10299234;28;20046;-76
2023/12/01 16:47:36;;;;;;;47.00;21.90;;;;;;;-1.94;100.00;100896.75;10312683;28;20042;-77
2023/12/01 16:52:36;;;;;;;49.03;20.70;;;;;;;-1.95;100.00;100884.25;10345254;28;20533;-76
2023/12/01 16:57:37;;;;;;;50.47;21.80;;;;;;;-1.88;100.00;100917.66;10325749;28;20039;-76
2023/12/01 17:02:38;;;;;;;46.37;21.07;;;;;;;-1.90;100.00;100925.06;10297725;28;20043;-77
2023/12/01 17:07:38;;;;;;;46.87;23.17;;;;;;;-1.90;100.00;100946.66;10296958;28;20058;-76
2023/12/01 17:12:39;;;;;;;49.73;22.97;;;;;;;-1.88;100.00;100947.34;10312559;28;20046;-77
2023/12/01 17:17:39;;;;;;;54.20;23.77;;;;;;;-1.84;100.00;100940.56;10312196;28;20038;-77
2023/12/01 17:22:40;;;;;;;45.07;21.43;;;;;;;-1.93;100.00;100930.78;10295005;28;20193;-77
2023/12/01 17:27:40;;;;;;;42.00;20.40;;;;;;;-1.89;100.00;100948.31;10313969;28;20034;-76
2023/12/01 17:32:41;;;;;;;52.10;20.60;;;;;;;-1.92;100.00;100934.31;10280124;28;20066;-76
2023/12/01 17:37:42;;;;;;;49.80;21.30;;;;;;;-1.86;100.00;100966.88;10269682;28;20043;-77
2023/12/01 17:42:42;;;;;;;42.50;19.83;;;;;;;-1.81;100.00;100954.75;10256691;28;20042;-76
2023/12/01 17:47:43;;;;;;;47.10;20.60;;;;;;;-1.82;100.00;100940.38;10285981;28;20046;-76
2023/12/01 17:52:43;;;;;;;48.73;20.37;;;;;;;-1.85;100.00;100948.84;10277602;28;20047;-73
2023/12/01 17:57:44;;;;;;;48.33;23.37;;;;;;;-1.77;100.00;100939.88;10248805;28;20085;-76
2023/12/01 18:02:44;;;;;;;50.03;21.73;;;;;;;-1.75;100.00;100951.34;10292110;28;20101;-77
2023/12/01 18:07:45;;;;;;;50.37;20.13;;;;;;;-2.13;100.00;100891.69;10247304;28;20031;-77
2023/12/01 18:12:45;;;;;;;46.97;21.13;;;;;;;-1.69;100.00;100961.47;10247493;28;20038;-76
2023/12/01 18:17:46;;;;;;;44.53;19.77;;;;;;;-1.71;100.00;100958.94;10262421;28;20071;-77
2023/12/01 18:22:46;;;;;;;52.97;23.00;;;;;;;-1.71;100.00;100958.09;10293827;28;20035;-77
2023/12/01 18:27:47;;;;;;;41.70;19.67;;;;;;;-1.70;100.00;100954.38;10275139;28;20039;-74
2023/12/01 18:32:47;;;;;;;43.17;20.27;;;;;;;-1.72;100.00;100959.94;10312374;28;20038;-77
2023/12/01 18:37:48;;;;;;;46.47;21.80;;;;;;;-1.70;100.00;100955.19;10297723;28;20081;-76
2023/12/01 18:42:48;;;;;;;46.10;21.03;;;;;;;-1.64;100.00;100961.78;10316061;28;20042;-76
2023/12/01 18:47:51;;;;;;;47.70;22.33;;;;;;;-1.57;100.00;100956.53;10317632;28;20403;-77
2023/12/01 18:52:53;;;;;;;49.73;23.40;;;;;;;-1.59;100.00;100955.84;10299069;28;20509;-77
2023/12/01 18:57:53;;;;;;;47.60;22.40;;;;;;;-1.55;100.00;100959.91;10312173;28;20082;-77
2023/12/01 19:02:54;;;;;;;47.13;23.53;;;;;;;-1.72;100.00;100948.31;10325070;28;20091;-78
2023/12/01 19:07:54;;;;;;;48.93;22.07;;;;;;;-1.69;100.00;100958.78;10304921;28;20143;-77
2023/12/01 19:12:55;;;;;;;44.07;20.17;;;;;;;-1.73;100.00;100968.22;10285828;28;20038;-77
2023/12/01 19:17:55;;;;;;;46.23;21.57;;;;;;;-1.68;100.00;100972.06;10290048;28;20042;-77
2023/12/01 19:22:56;;;;;;;46.33;21.33;;;;;;;-1.86;100.00;100941.75;10311967;28;20393;-77
2023/12/01 19:27:56;;;;;;;51.53;23.73;;;;;;;-1.75;100.00;100951.34;10308545;28;20045;-76
2023/12/01 19:32:57;;;;;;;51.27;22.93;;;;;;;-1.83;100.00;100942.25;10321030;28;20058;-77
2023/12/01 19:37:57;;;;;;;52.23;23.73;;;;;;;-1.86;100.00;100960.63;10300646;28;20053;-77
2023/12/01 19:42:58;;;;;;;52.83;21.77;;;;;;;-1.93;100.00;100960.47;10330113;28;20473;-77
2023/12/01 19:47:58;;;;;;;44.90;22.30;;;;;;;-2.04;100.00;100958.13;10302712;28;20519;-77
2023/12/01 19:52:59;;;;;;;53.60;22.10;;;;;;;-2.03;100.00;100973.28;10306562;28;20039;-76
2023/12/01 19:57:59;;;;;;;56.80;24.63;;;;;;;-2.05;100.00;100960.00;10314586;28;20054;-77
2023/12/01 20:03:00;;;;;;;57.90;24.50;;;;;;;-1.99;100.00;100980.03;10334771;28;20058;-77
2023/12/01 20:08:01;;;;;;;63.03;26.10;;;;;;;-1.96;100.00;100974.31;10315623;28;20042;-77
2023/12/01 20:13:02;;;;;;;56.80;24.90;;;;;;;-1.97;100.00;100969.09;10294783;28;20491;-77
2023/12/01 20:18:04;;;;;;;50.83;24.57;;;;;;;-1.94;100.00;100983.09;10291682;28;20045;-77
2023/12/01 20:23:04;;;;;;;56.03;25.80;;;;;;;-1.98;100.00;100960.16;10299024;28;20047;-77
2023/12/01 20:28:05;;;;;;;57.63;26.03;;;;;;;-1.90;100.00;100970.94;10291011;28;20070;-76
2023/12/01 20:33:06;;;;;;;62.97;25.40;;;;;;;-2.00;100.00;100964.88;10295651;28;20054;-76
2023/12/01 20:38:07;;;;;;;60.60;23.77;;;;;;;-2.46;100.00;100929.47;10277742;28;20079;-77
2023/12/01 20:43:07;;;;;;;58.00;26.47;;;;;;;-2.13;100.00;100969.94;10286671;28;20038;-77
2023/12/01 20:48:08;;;;;;;57.37;24.50;;;;;;;-2.32;100.00;100966.56;10307546;28;20190;-77
2023/12/01 20:53:08;;;;;;;62.93;26.40;;;;;;;-2.39;100.00;100970.09;10313275;28;20054;-77
2023/12/01 20:58:09;;;;;;;63.87;24.33;;;;;;;-2.47;100.00;100985.25;10312744;28;20057;-78
2023/12/01 21:03:10;;;;;;;55.93;22.43;;;;;;;-2.56;100.00;100988.97;10296901;28;20062;-77
2023/12/01 21:08:10;;;;;;;69.20;27.63;;;;;;;-2.68;100.00;100976.81;10310581;28;20051;-73
2023/12/01 21:13:11;;;;;;;65.33;26.30;;;;;;;-2.73;100.00;100987.22;10313344;28;20494;-76
2023/12/01 21:18:11;;;;;;;65.63;27.10;;;;;;;-2.76;100.00;100983.00;10296020;28;20406;-75
2023/12/01 21:23:12;;;;;;;62.90;26.90;;;;;;;-2.70;100.00;100990.44;10289279;28;20414;-76
2023/12/01 21:28:12;;;;;;;67.90;28.07;;;;;;;-2.70;100.00;100982.34;10309416;28;20039;-76
2023/12/01 21:33:13;;;;;;;66.13;28.33;;;;;;;-2.56;100.00;101004.25;10292721;28;20065;-76
2023/12/01 21:38:13;;;;;;;65.80;27.57;;;;;;;-2.54;100.00;101002.25;10289127;28;20106;-76
2023/12/01 21:43:14;;;;;;;75.40;28.63;;;;;;;-2.67;100.00;100973.94;10286549;28;20054;-76
2023/12/01 21:48:14;;;;;;;65.97;28.70;;;;;;;-2.41;100.00;101002.63;10308352;28;20070;-76
2023/12/01 21:53:15;;;;;;;69.17;27.63;;;;;;;-2.36;100.00;101002.94;10286833;28;20097;-76
2023/12/01 21:58:15;;;;;;;85.30;32.20;;;;;;;-2.33;100.00;100993.72;10287691;28;20050;-76
2023/12/01 22:03:18;;;;;;;91.33;32.80;;;;;;;-2.27;100.00;100999.28;10303990;28;20062;-77
2023/12/01 22:08:18;;;;;;;71.53;28.73;;;;;;;-2.25;100.00;101008.03;10290192;28;20491;-77
2023/12/01 22:13:19;;;;;;;73.40;30.77;;;;;;;-2.26;100.00;101006.34;10307661;28;20108;-77
2023/12/01 22:18:19;;;;;;;71.30;29.43;;;;;;;-2.20;100.00;101021.00;10314005;28;20085;-76